createdAt,value
2022-12-28T00:00:06.285Z,4.11
2022-12-28T00:00:37.793Z,4.11
2022-12-28T00:01:09.758Z,4.11
2022-12-28T00:01:41.854Z,4.11
2022-12-28T00:02:13.830Z,4.11
2022-12-28T00:02:46.245Z,4.11
2022-12-28T00:03:17.853Z,4.11
2022-12-28T00:03:49.725Z,4.11
2022-12-28T00:04:21.721Z,4.11
2022-12-28T00:04:53.553Z,4.11
2022-12-28T00:05:25.537Z,4.11
2022-12-28T00:05:57.616Z,4.11
2022-12-28T00:06:29.717Z,4.11
2022-12-28T00:07:01.501Z,4.11
2022-12-28T00:07:33.534Z,4.11
2022-12-28T00:08:05.527Z,4.22
2022-12-28T00:08:37.406Z,4.22
2022-12-28T00:09:09.347Z,4.22
2022-12-28T00:09:41.362Z,4.22
2022-12-28T00:10:13.479Z,4.22
2022-12-28T00:11:08.289Z,4.22
2022-12-28T00:11:25.552Z,4.22
2022-12-28T00:11:49.400Z,4.22
2022-12-28T00:12:21.986Z,4.22
2022-12-28T00:12:53.240Z,4.22
2022-12-28T00:13:25.252Z,4.22
2022-12-28T00:13:57.319Z,4.22
2022-12-28T00:14:29.257Z,4.22
2022-12-28T00:15:01.615Z,4.27
2022-12-28T00:15:33.938Z,4.27
2022-12-28T00:16:05.238Z,4.22
2022-12-28T00:16:37.069Z,4.22
2022-12-28T00:17:09.049Z,4.22
2022-12-28T00:17:41.107Z,4.22
2022-12-28T00:18:13.100Z,4.22
2022-12-28T00:18:44.927Z,4.22
2022-12-28T00:19:16.998Z,4.22
2022-12-28T00:19:48.973Z,4.22
2022-12-28T00:20:21.059Z,4.22
2022-12-28T00:20:52.849Z,4.22
2022-12-28T00:21:24.935Z,4.22
2022-12-28T00:21:56.860Z,4.22
2022-12-28T00:22:28.974Z,4.22
2022-12-28T00:23:01.364Z,4.22
2022-12-28T00:23:32.852Z,4.22
2022-12-28T00:24:04.892Z,4.22
2022-12-28T00:24:36.900Z,4.22
2022-12-28T00:25:08.676Z,4.22
2022-12-28T00:25:40.745Z,4.22
2022-12-28T00:26:12.722Z,4.22
2022-12-28T00:26:44.760Z,4.22
2022-12-28T00:27:16.617Z,4.11
2022-12-28T00:27:48.626Z,4.11
2022-12-28T00:28:20.658Z,4.11
2022-12-28T00:28:55.541Z,4.11
2022-12-28T00:29:24.537Z,4.11
2022-12-28T00:29:56.597Z,4.11
2022-12-28T00:30:28.730Z,4.11
2022-12-28T00:31:00.619Z,4.11
2022-12-28T00:31:32.588Z,4.11
2022-12-28T00:32:04.473Z,4.11
2022-12-28T00:32:36.539Z,4.11
2022-12-28T00:33:08.473Z,4.11
2022-12-28T00:33:40.333Z,4.11
2022-12-28T00:34:12.330Z,4.11
2022-12-28T00:34:44.392Z,4.11
2022-12-28T00:35:16.493Z,4.11
2022-12-28T00:35:48.261Z,4.11
2022-12-28T00:36:20.288Z,4.11
2022-12-28T00:37:09.377Z,4.11
2022-12-28T00:37:24.347Z,4.11
2022-12-28T00:37:56.109Z,4.11
2022-12-28T00:38:28.182Z,4.00
2022-12-28T00:39:00.229Z,4.00
2022-12-28T00:39:32.296Z,4.00
2022-12-28T00:40:04.092Z,4.00
2022-12-28T00:40:36.102Z,4.00
2022-12-28T00:41:08.141Z,4.00
2022-12-28T00:41:40.186Z,3.88
2022-12-28T00:42:12.002Z,3.88
2022-12-28T00:42:45.007Z,3.88
2022-12-28T00:43:16.073Z,3.88
2022-12-28T00:43:48.101Z,4.00
2022-12-28T00:44:19.906Z,4.00
2022-12-28T00:44:51.898Z,4.00
2022-12-28T00:45:24.206Z,4.00
2022-12-28T00:45:56.032Z,4.00
2022-12-28T00:46:27.863Z,4.00
2022-12-28T00:46:59.858Z,4.00
2022-12-28T00:47:31.849Z,4.00
2022-12-28T00:48:03.656Z,4.00
2022-12-28T00:48:35.742Z,4.00
2022-12-28T00:49:07.735Z,4.00
2022-12-28T00:49:39.808Z,4.11
2022-12-28T00:50:11.836Z,4.11
2022-12-28T00:50:43.610Z,4.11
2022-12-28T00:51:15.733Z,4.11
2022-12-28T00:51:47.749Z,4.11
2022-12-28T00:52:19.544Z,4.11
2022-12-28T00:52:51.543Z,4.11
2022-12-28T00:53:23.571Z,4.11
2022-12-28T00:53:55.582Z,4.11
2022-12-28T00:54:27.402Z,4.11
2022-12-28T00:54:59.467Z,4.00
2022-12-28T00:55:31.477Z,4.00
2022-12-28T00:56:03.525Z,4.00
2022-12-28T00:56:35.371Z,4.00
2022-12-28T00:57:07.408Z,4.00
2022-12-28T00:57:39.547Z,4.00
2022-12-28T00:58:11.471Z,4.11
2022-12-28T00:58:43.254Z,4.00
2022-12-28T00:59:15.345Z,4.11
2022-12-28T00:59:47.540Z,4.11
2022-12-28T01:00:19.562Z,4.11
2022-12-28T01:00:51.145Z,4.11
2022-12-28T01:01:23.338Z,4.11
2022-12-28T01:01:55.647Z,4.11
2022-12-28T01:02:27.235Z,4.11
2022-12-28T01:02:59.225Z,4.11
2022-12-28T01:03:31.145Z,4.11
2022-12-28T01:04:03.174Z,4.11
2022-12-28T01:04:35.155Z,4.22
2022-12-28T01:05:06.987Z,4.22
2022-12-28T01:05:39.030Z,4.22
2022-12-28T01:06:11.113Z,4.22
2022-12-28T01:06:43.070Z,4.22
2022-12-28T01:07:14.976Z,4.22
2022-12-28T01:07:46.979Z,4.22
2022-12-28T01:08:19.009Z,4.22
2022-12-28T01:08:51.017Z,4.22
2022-12-28T01:09:22.845Z,4.22
2022-12-28T01:09:54.862Z,4.22
2022-12-28T01:10:26.860Z,4.22
2022-12-28T01:10:58.934Z,4.22
2022-12-28T01:11:30.964Z,4.22
2022-12-28T01:12:02.796Z,4.22
2022-12-28T01:12:38.074Z,4.27
2022-12-28T01:13:06.839Z,4.27
2022-12-28T01:13:38.714Z,4.27
2022-12-28T01:14:10.695Z,2.96
2022-12-28T01:14:42.716Z,4.27
2022-12-28T01:15:14.908Z,4.27
2022-12-28T01:15:46.640Z,4.27
2022-12-28T01:16:18.676Z,4.27
2022-12-28T01:16:50.674Z,4.27
2022-12-28T01:17:22.437Z,4.27
2022-12-28T01:17:54.513Z,4.27
2022-12-28T01:18:26.502Z,4.27
2022-12-28T01:18:58.591Z,4.27
2022-12-28T01:19:30.351Z,4.27
2022-12-28T01:20:02.425Z,4.27
2022-12-28T01:20:34.481Z,4.27
2022-12-28T01:21:06.420Z,4.27
2022-12-28T01:21:38.334Z,3.20
2022-12-28T01:22:10.368Z,4.38
2022-12-28T01:22:42.355Z,2.62
2022-12-28T01:23:14.438Z,4.38
2022-12-28T01:23:46.256Z,4.38
2022-12-28T01:24:18.260Z,4.38
2022-12-28T01:24:50.328Z,4.38
2022-12-28T01:25:22.323Z,4.38
2022-12-28T01:25:54.154Z,4.38
2022-12-28T01:26:26.183Z,4.38
2022-12-28T01:26:58.220Z,4.38
2022-12-28T01:27:30.244Z,4.27
2022-12-28T01:28:02.012Z,4.27
2022-12-28T01:28:34.110Z,4.27
2022-12-28T01:29:06.068Z,4.27
2022-12-28T01:29:38.089Z,4.27
2022-12-28T01:30:10.413Z,2.96
2022-12-28T01:30:42.020Z,4.27
2022-12-28T01:31:14.020Z,4.27
2022-12-28T01:31:46.174Z,4.27
2022-12-28T01:32:17.844Z,4.27
2022-12-28T01:32:49.934Z,4.27
2022-12-28T01:33:21.943Z,4.27
2022-12-28T01:33:54.011Z,4.27
2022-12-28T01:34:25.776Z,4.27
2022-12-28T01:34:57.800Z,2.59
2022-12-28T01:35:29.903Z,4.27
2022-12-28T01:36:02.035Z,4.27
2022-12-28T01:36:33.711Z,4.27
2022-12-28T01:37:05.753Z,4.38
2022-12-28T01:37:37.765Z,4.38
2022-12-28T01:38:09.579Z,3.20
2022-12-28T01:38:41.621Z,4.38
2022-12-28T01:39:13.699Z,3.20
2022-12-28T01:39:45.630Z,4.38
2022-12-28T01:40:17.841Z,4.38
2022-12-28T01:40:49.530Z,3.20
2022-12-28T01:41:21.563Z,4.38
2022-12-28T01:41:53.605Z,4.38
2022-12-28T01:42:25.428Z,4.38
2022-12-28T01:42:58.341Z,4.38
2022-12-28T01:43:30.114Z,4.38
2022-12-28T01:44:01.492Z,4.38
2022-12-28T01:44:33.776Z,2.23
2022-12-28T01:45:05.781Z,4.38
2022-12-28T01:45:37.457Z,4.38
2022-12-28T01:46:09.512Z,4.50
2022-12-28T01:46:41.297Z,4.50
2022-12-28T01:47:13.376Z,3.34
2022-12-28T01:47:45.321Z,4.50
2022-12-28T01:48:17.364Z,4.50
2022-12-28T01:48:49.355Z,4.50
2022-12-28T01:49:21.208Z,4.50
2022-12-28T01:49:53.264Z,3.20
2022-12-28T01:50:25.294Z,4.38
2022-12-28T01:50:57.038Z,4.38
2022-12-28T01:51:29.118Z,4.38
2022-12-28T01:52:01.169Z,4.38
2022-12-28T01:52:33.638Z,4.38
2022-12-28T01:53:05.035Z,3.20
2022-12-28T01:53:37.051Z,2.87
2022-12-28T01:54:09.072Z,4.38
2022-12-28T01:54:41.116Z,4.38
2022-12-28T01:55:12.915Z,4.38
2022-12-28T01:55:44.961Z,4.38
2022-12-28T01:56:17.042Z,2.44
2022-12-28T01:56:49.050Z,4.38
2022-12-28T01:57:20.841Z,4.38
2022-12-28T01:57:52.856Z,4.38
2022-12-28T01:58:24.901Z,2.71
2022-12-28T01:58:56.915Z,4.38
2022-12-28T01:59:28.762Z,4.38
2022-12-28T02:00:01.267Z,4.38
2022-12-28T02:00:32.798Z,4.38
2022-12-28T02:01:04.777Z,2.97
2022-12-28T02:01:36.827Z,4.38
2022-12-28T02:02:08.948Z,2.97
2022-12-28T02:02:40.767Z,4.38
2022-12-28T02:03:12.633Z,4.38
2022-12-28T02:03:44.681Z,4.38
2022-12-28T02:04:16.658Z,2.97
2022-12-28T02:04:48.624Z,4.38
2022-12-28T02:05:20.478Z,4.38
2022-12-28T02:05:52.454Z,4.38
2022-12-28T02:06:24.504Z,4.38
2022-12-28T02:06:56.585Z,4.38
2022-12-28T02:07:28.411Z,4.38
2022-12-28T02:08:00.368Z,4.27
2022-12-28T02:08:32.404Z,4.27
2022-12-28T02:09:04.437Z,2.49
2022-12-28T02:09:36.280Z,4.38
2022-12-28T02:10:44.328Z,3.08
2022-12-28T02:10:45.469Z,4.38
2022-12-28T02:11:12.401Z,4.50
2022-12-28T02:11:44.269Z,4.50
2022-12-28T02:12:16.228Z,4.50
2022-12-28T02:12:48.292Z,4.50
2022-12-28T02:13:20.324Z,4.50
2022-12-28T02:13:52.123Z,4.50
2022-12-28T02:14:24.134Z,4.50
2022-12-28T02:14:56.138Z,4.50
2022-12-28T02:15:28.385Z,4.50
2022-12-28T02:15:59.965Z,4.50
2022-12-28T02:16:32.055Z,3.11
2022-12-28T02:17:04.192Z,4.38
2022-12-28T02:17:36.084Z,4.38
2022-12-28T02:18:07.934Z,4.38
2022-12-28T02:18:39.977Z,4.38
2022-12-28T02:19:12.056Z,4.38
2022-12-28T02:19:44.107Z,4.38
2022-12-28T02:20:15.944Z,4.38
2022-12-28T02:20:47.889Z,4.38
2022-12-28T02:21:19.929Z,4.38
2022-12-28T02:21:51.963Z,4.38
2022-12-28T02:22:23.814Z,4.38
2022-12-28T02:22:55.822Z,4.38
2022-12-28T02:23:27.884Z,4.38
2022-12-28T02:23:59.934Z,4.38
2022-12-28T02:24:31.725Z,4.38
2022-12-28T02:25:12.861Z,4.38
2022-12-28T02:25:35.743Z,4.38
2022-12-28T02:26:07.644Z,3.08
2022-12-28T02:26:39.626Z,4.38
2022-12-28T02:27:11.661Z,4.38
2022-12-28T02:27:43.749Z,4.50
2022-12-28T02:28:15.495Z,4.50
2022-12-28T02:28:47.506Z,4.50
2022-12-28T02:29:19.577Z,4.50
2022-12-28T02:29:51.624Z,4.50
2022-12-28T02:30:23.595Z,4.50
2022-12-28T02:30:55.538Z,4.50
2022-12-28T02:31:27.528Z,4.50
2022-12-28T02:31:59.532Z,4.50
2022-12-28T02:32:31.348Z,4.50
2022-12-28T02:33:03.482Z,4.50
2022-12-28T02:33:35.407Z,4.50
2022-12-28T02:34:07.379Z,4.50
2022-12-28T02:34:39.259Z,4.50
2022-12-28T02:35:11.329Z,4.38
2022-12-28T02:35:43.343Z,4.38
2022-12-28T02:36:18.472Z,4.38
2022-12-28T02:36:47.186Z,4.38
2022-12-28T02:37:19.695Z,4.38
2022-12-28T02:37:51.228Z,4.38
2022-12-28T02:38:23.256Z,4.38
2022-12-28T02:38:55.473Z,4.38
2022-12-28T02:39:27.145Z,4.50
2022-12-28T02:39:59.147Z,3.01
2022-12-28T02:40:31.181Z,4.50
2022-12-28T02:41:03.012Z,4.50
2022-12-28T02:41:35.245Z,4.61
2022-12-28T02:42:07.047Z,4.61
2022-12-28T02:42:38.928Z,4.61
2022-12-28T02:43:10.963Z,4.72
2022-12-28T02:43:42.982Z,4.72
2022-12-28T02:44:14.992Z,4.72
2022-12-28T02:44:46.825Z,4.72
2022-12-28T02:45:19.017Z,4.72
2022-12-28T02:45:50.910Z,4.72
2022-12-28T02:46:22.939Z,4.72
2022-12-28T02:46:54.755Z,4.72
2022-12-28T02:47:26.712Z,4.72
2022-12-28T02:47:58.820Z,4.72
2022-12-28T02:48:30.810Z,4.61
2022-12-28T02:49:02.591Z,4.61
2022-12-28T02:49:34.648Z,4.61
2022-12-28T02:50:06.662Z,4.61
2022-12-28T02:50:38.676Z,4.61
2022-12-28T02:51:10.577Z,4.61
2022-12-28T02:51:42.720Z,4.72
2022-12-28T02:52:14.624Z,4.72
2022-12-28T02:52:46.784Z,4.72
2022-12-28T02:53:18.479Z,4.72
2022-12-28T02:53:50.514Z,4.72
2022-12-28T02:54:22.523Z,4.72
2022-12-28T02:54:54.568Z,4.72
2022-12-28T02:55:26.372Z,4.72
2022-12-28T02:55:58.389Z,4.72
2022-12-28T02:56:30.438Z,4.72
2022-12-28T02:57:02.429Z,4.72
2022-12-28T02:57:34.441Z,2.54
2022-12-28T02:58:06.374Z,4.77
2022-12-28T02:58:38.376Z,4.77
2022-12-28T02:59:10.241Z,4.77
2022-12-28T02:59:42.250Z,4.88
2022-12-28T03:00:14.572Z,4.88
2022-12-28T03:00:46.305Z,4.88
2022-12-28T03:01:18.183Z,4.88
2022-12-28T03:01:50.238Z,5.00
2022-12-28T03:02:22.497Z,5.00
2022-12-28T03:02:54.310Z,5.00
2022-12-28T03:03:26.160Z,5.00
2022-12-28T03:03:58.083Z,5.00
2022-12-28T03:04:30.089Z,5.00
2022-12-28T03:05:02.129Z,5.00
2022-12-28T03:05:33.929Z,5.11
2022-12-28T03:06:05.999Z,3.38
2022-12-28T03:06:38.004Z,3.71
2022-12-28T03:07:10.099Z,5.11
2022-12-28T03:07:41.924Z,5.11
2022-12-28T03:08:13.929Z,5.11
2022-12-28T03:08:45.910Z,5.11
2022-12-28T03:09:17.964Z,5.11
2022-12-28T03:09:49.749Z,5.11
2022-12-28T03:10:21.834Z,5.11
2022-12-28T03:10:53.862Z,5.11
2022-12-28T03:11:25.872Z,5.11
2022-12-28T03:11:57.702Z,5.11
2022-12-28T03:12:29.818Z,5.11
2022-12-28T03:13:01.799Z,5.11
2022-12-28T03:13:34.111Z,5.11
2022-12-28T03:14:05.609Z,5.11
2022-12-28T03:14:37.760Z,5.11
2022-12-28T03:15:09.945Z,5.11
2022-12-28T03:15:41.779Z,5.11
2022-12-28T03:16:13.595Z,5.11
2022-12-28T03:16:45.607Z,5.11
2022-12-28T03:17:17.603Z,3.71
2022-12-28T03:17:49.435Z,5.22
2022-12-28T03:18:21.435Z,5.22
2022-12-28T03:18:53.500Z,5.22
2022-12-28T03:19:25.453Z,5.22
2022-12-28T03:19:57.351Z,5.22
2022-12-28T03:20:29.348Z,5.22
2022-12-28T03:21:01.385Z,5.22
2022-12-28T03:21:33.480Z,5.22
2022-12-28T03:22:05.227Z,5.22
2022-12-28T03:22:37.293Z,5.22
2022-12-28T03:23:09.399Z,5.22
2022-12-28T03:23:41.402Z,5.22
2022-12-28T03:24:13.183Z,5.22
2022-12-28T03:24:45.225Z,5.22
2022-12-28T03:25:17.258Z,5.22
2022-12-28T03:25:49.298Z,5.22
2022-12-28T03:26:21.115Z,5.22
2022-12-28T03:26:53.102Z,5.22
2022-12-28T03:27:25.152Z,5.22
2022-12-28T03:27:57.154Z,5.22
2022-12-28T03:28:29.055Z,5.11
2022-12-28T03:29:01.100Z,5.11
2022-12-28T03:29:33.086Z,4.03
2022-12-28T03:30:05.499Z,5.11
2022-12-28T03:30:36.993Z,5.11
2022-12-28T03:31:09.047Z,5.11
2022-12-28T03:31:41.044Z,5.11
2022-12-28T03:32:12.839Z,5.00
2022-12-28T03:32:44.882Z,5.00
2022-12-28T03:33:16.913Z,5.00
2022-12-28T03:33:48.925Z,5.00
2022-12-28T03:34:20.771Z,5.00
2022-12-28T03:34:52.757Z,3.69
2022-12-28T03:35:24.864Z,5.00
2022-12-28T03:35:56.837Z,5.00
2022-12-28T03:36:28.650Z,5.00
2022-12-28T03:37:00.668Z,4.88
2022-12-28T03:37:32.739Z,4.88
2022-12-28T03:38:04.781Z,4.88
2022-12-28T03:38:36.543Z,4.88
2022-12-28T03:39:08.580Z,4.88
2022-12-28T03:39:40.688Z,4.88
2022-12-28T03:40:12.633Z,4.88
2022-12-28T03:40:44.475Z,4.88
2022-12-28T03:41:16.467Z,4.88
2022-12-28T03:41:48.568Z,4.88
2022-12-28T03:42:20.591Z,4.88
2022-12-28T03:42:52.365Z,4.88
2022-12-28T03:43:24.437Z,4.88
2022-12-28T03:43:56.453Z,4.88
2022-12-28T03:44:28.442Z,4.88
2022-12-28T03:45:00.624Z,4.88
2022-12-28T03:45:44.884Z,4.88
2022-12-28T03:46:04.405Z,4.88
2022-12-28T03:46:36.442Z,4.88
2022-12-28T03:47:08.264Z,4.88
2022-12-28T03:47:40.307Z,4.88
2022-12-28T03:48:12.288Z,4.88
2022-12-28T03:48:44.291Z,5.00
2022-12-28T03:49:16.138Z,5.00
2022-12-28T03:49:48.177Z,5.00
2022-12-28T03:50:20.234Z,5.00
2022-12-28T03:50:52.202Z,5.00
2022-12-28T03:51:24.064Z,5.00
2022-12-28T03:51:56.069Z,5.00
2022-12-28T03:52:28.119Z,5.00
2022-12-28T03:53:00.127Z,5.00
2022-12-28T03:53:31.972Z,5.00
2022-12-28T03:54:04.012Z,5.00
2022-12-28T03:54:36.029Z,5.00
2022-12-28T03:55:08.129Z,5.00
2022-12-28T03:55:39.943Z,5.00
2022-12-28T03:56:11.901Z,5.00
2022-12-28T03:56:43.941Z,5.00
2022-12-28T03:57:15.985Z,5.00
2022-12-28T03:57:47.744Z,5.00
2022-12-28T03:58:19.847Z,5.11
2022-12-28T03:58:51.802Z,5.11
2022-12-28T03:59:23.902Z,5.11
2022-12-28T03:59:55.702Z,5.11
2022-12-28T04:00:27.920Z,5.11
2022-12-28T04:00:59.799Z,5.11
2022-12-28T04:01:31.680Z,5.11
2022-12-28T04:02:03.680Z,5.11
2022-12-28T04:02:36.116Z,5.11
2022-12-28T04:03:07.795Z,5.11
2022-12-28T04:03:39.560Z,5.11
2022-12-28T04:04:11.551Z,5.11
2022-12-28T04:04:43.549Z,5.11
2022-12-28T04:05:15.579Z,5.22
2022-12-28T04:05:47.384Z,5.22
2022-12-28T04:06:19.601Z,5.22
2022-12-28T04:06:51.491Z,5.22
2022-12-28T04:07:23.534Z,5.22
2022-12-28T04:07:55.310Z,5.22
2022-12-28T04:08:27.384Z,5.22
2022-12-28T04:08:59.412Z,5.22
2022-12-28T04:09:31.433Z,5.22
2022-12-28T04:10:03.272Z,5.22
2022-12-28T04:10:35.297Z,5.22
2022-12-28T04:11:07.371Z,5.22
2022-12-28T04:11:39.568Z,5.22
2022-12-28T04:12:11.167Z,5.22
2022-12-28T04:12:43.234Z,5.22
2022-12-28T04:13:15.197Z,5.22
2022-12-28T04:13:47.280Z,5.22
2022-12-28T04:14:19.074Z,5.22
2022-12-28T04:14:51.069Z,5.22
2022-12-28T04:15:23.346Z,5.22
2022-12-28T04:15:55.219Z,5.22
2022-12-28T04:16:27.020Z,5.22
2022-12-28T04:16:59.076Z,5.22
2022-12-28T04:17:31.100Z,5.22
2022-12-28T04:18:02.886Z,5.22
2022-12-28T04:18:34.961Z,5.22
2022-12-28T04:19:06.991Z,5.22
2022-12-28T04:19:39.013Z,5.22
2022-12-28T04:20:11.014Z,5.22
2022-12-28T04:20:42.872Z,5.22
2022-12-28T04:21:14.898Z,5.22
2022-12-28T04:21:46.905Z,5.22
2022-12-28T04:22:18.790Z,5.22
2022-12-28T04:22:50.806Z,5.22
2022-12-28T04:23:22.783Z,5.22
2022-12-28T04:23:54.819Z,5.22
2022-12-28T04:24:26.663Z,5.22
2022-12-28T04:24:58.695Z,5.22
2022-12-28T04:25:30.695Z,5.22
2022-12-28T04:26:11.043Z,5.22
2022-12-28T04:26:34.545Z,5.22
2022-12-28T04:27:06.591Z,5.22
2022-12-28T04:27:38.675Z,5.22
2022-12-28T04:28:10.626Z,5.22
2022-12-28T04:28:42.491Z,5.22
2022-12-28T04:29:14.460Z,5.22
2022-12-28T04:29:46.538Z,5.22
2022-12-28T04:30:18.853Z,5.22
2022-12-28T04:30:50.411Z,5.22
2022-12-28T04:31:22.472Z,5.22
2022-12-28T04:31:54.448Z,5.22
2022-12-28T04:32:26.308Z,5.27
2022-12-28T04:32:58.289Z,4.00
2022-12-28T04:33:30.311Z,5.27
2022-12-28T04:34:02.413Z,4.00
2022-12-28T04:34:34.184Z,5.27
2022-12-28T04:35:06.267Z,5.27
2022-12-28T04:35:38.282Z,5.27
2022-12-28T04:36:10.365Z,5.27
2022-12-28T04:36:42.406Z,5.38
2022-12-28T04:37:14.187Z,5.38
2022-12-28T04:37:46.339Z,5.38
2022-12-28T04:38:18.179Z,5.38
2022-12-28T04:38:50.064Z,5.38
2022-12-28T04:39:23.174Z,5.38
2022-12-28T04:39:57.345Z,5.38
2022-12-28T04:40:26.159Z,5.38
2022-12-28T04:40:57.950Z,5.38
2022-12-28T04:41:30.012Z,5.38
2022-12-28T04:42:02.054Z,5.38
2022-12-28T04:42:34.512Z,5.38
2022-12-28T04:43:05.937Z,5.38
2022-12-28T04:43:37.963Z,5.50
2022-12-28T04:44:10.223Z,5.50
2022-12-28T04:44:41.984Z,5.50
2022-12-28T04:45:19.914Z,5.50
2022-12-28T04:45:45.838Z,5.50
2022-12-28T04:46:17.958Z,5.50
2022-12-28T04:46:49.894Z,5.50
2022-12-28T04:47:21.714Z,5.50
2022-12-28T04:47:53.779Z,5.50
2022-12-28T04:48:25.717Z,5.50
2022-12-28T04:48:58.204Z,5.50
2022-12-28T04:49:29.637Z,5.50
2022-12-28T04:50:01.838Z,5.50
2022-12-28T04:50:33.700Z,5.50
2022-12-28T04:51:05.736Z,5.50
2022-12-28T04:51:37.525Z,5.50
2022-12-28T04:52:09.596Z,5.50
2022-12-28T04:52:41.612Z,3.93
2022-12-28T04:53:13.629Z,4.02
2022-12-28T04:53:45.422Z,5.50
2022-12-28T04:54:17.498Z,5.61
2022-12-28T04:54:49.486Z,5.61
2022-12-28T04:55:32.254Z,5.61
2022-12-28T04:55:53.365Z,5.61
2022-12-28T04:56:25.399Z,4.29
2022-12-28T04:56:57.452Z,4.60
2022-12-28T04:57:29.267Z,5.61
2022-12-28T04:58:01.299Z,5.61
2022-12-28T04:58:33.315Z,5.72
2022-12-28T04:59:05.504Z,4.42
2022-12-28T04:59:37.215Z,4.42
2022-12-28T05:00:09.673Z,5.72
2022-12-28T05:00:41.315Z,5.72
2022-12-28T05:01:13.396Z,5.72
2022-12-28T05:01:45.260Z,5.72
2022-12-28T05:02:17.282Z,5.72
2022-12-28T05:02:49.187Z,5.72
2022-12-28T05:03:21.162Z,5.72
2022-12-28T05:03:56.588Z,5.72
2022-12-28T05:04:25.089Z,5.61
2022-12-28T05:04:57.056Z,5.61
2022-12-28T05:05:29.068Z,5.61
2022-12-28T05:06:00.905Z,5.61
2022-12-28T05:06:32.946Z,5.61
2022-12-28T05:07:05.041Z,5.61
2022-12-28T05:07:37.054Z,5.61
2022-12-28T05:08:08.816Z,5.72
2022-12-28T05:08:40.857Z,5.72
2022-12-28T05:09:12.880Z,5.72
2022-12-28T05:09:44.933Z,5.72
2022-12-28T05:10:16.757Z,5.72
2022-12-28T05:10:48.804Z,5.72
2022-12-28T05:11:20.811Z,5.72
2022-12-28T05:11:52.936Z,5.72
2022-12-28T05:12:24.627Z,5.61
2022-12-28T05:12:56.715Z,5.61
2022-12-28T05:13:28.838Z,5.61
2022-12-28T05:14:00.715Z,5.61
2022-12-28T05:14:36.963Z,5.61
2022-12-28T05:15:05.001Z,5.61
2022-12-28T05:15:36.691Z,5.61
2022-12-28T05:16:08.584Z,5.61
2022-12-28T05:16:40.499Z,5.72
2022-12-28T05:17:12.504Z,5.72
2022-12-28T05:17:44.576Z,5.72
2022-12-28T05:18:16.541Z,5.72
2022-12-28T05:18:48.397Z,5.72
2022-12-28T05:19:20.465Z,5.72
2022-12-28T05:19:52.406Z,5.72
2022-12-28T05:20:24.494Z,5.72
2022-12-28T05:20:56.295Z,5.72
2022-12-28T05:21:28.378Z,5.72
2022-12-28T05:22:00.364Z,5.77
2022-12-28T05:22:35.092Z,5.77
2022-12-28T05:23:04.321Z,5.77
2022-12-28T05:23:36.319Z,5.77
2022-12-28T05:24:08.240Z,5.77
2022-12-28T05:24:40.115Z,5.77
2022-12-28T05:25:12.162Z,5.77
2022-12-28T05:25:44.194Z,5.77
2022-12-28T05:26:16.172Z,5.77
2022-12-28T05:26:48.038Z,5.77
2022-12-28T05:27:20.084Z,5.77
2022-12-28T05:27:52.092Z,5.77
2022-12-28T05:28:24.121Z,5.77
2022-12-28T05:28:55.934Z,5.77
2022-12-28T05:29:27.963Z,5.77
2022-12-28T05:30:00.010Z,5.77
2022-12-28T05:30:32.298Z,5.77
2022-12-28T05:31:03.953Z,5.77
2022-12-28T05:31:36.063Z,5.77
2022-12-28T05:32:07.962Z,5.77
2022-12-28T05:32:39.939Z,5.77
2022-12-28T05:33:11.750Z,5.77
2022-12-28T05:33:43.836Z,5.77
2022-12-28T05:34:15.847Z,5.77
2022-12-28T05:34:47.889Z,5.77
2022-12-28T05:35:19.671Z,5.77
2022-12-28T05:35:51.686Z,5.77
2022-12-28T05:36:23.803Z,5.77
2022-12-28T05:36:55.779Z,5.77
2022-12-28T05:37:27.599Z,5.77
2022-12-28T05:37:59.649Z,5.77
2022-12-28T05:38:31.765Z,5.77
2022-12-28T05:39:03.843Z,5.77
2022-12-28T05:39:35.759Z,5.77
2022-12-28T05:40:07.557Z,5.77
2022-12-28T05:40:39.600Z,5.77
2022-12-28T05:41:11.592Z,5.77
2022-12-28T05:41:43.460Z,5.77
2022-12-28T05:42:15.482Z,5.77
2022-12-28T05:42:51.462Z,5.77
2022-12-28T05:43:19.541Z,5.77
2022-12-28T05:43:51.311Z,5.77
2022-12-28T05:44:23.403Z,5.77
2022-12-28T05:44:55.406Z,5.77
2022-12-28T05:45:27.619Z,5.88
2022-12-28T05:45:59.224Z,5.88
2022-12-28T05:46:31.405Z,5.88
2022-12-28T05:47:03.413Z,5.88
2022-12-28T05:47:35.137Z,4.70
2022-12-28T05:48:07.181Z,5.88
2022-12-28T05:48:39.177Z,5.88
2022-12-28T05:49:11.256Z,5.88
2022-12-28T05:49:43.065Z,5.88
2022-12-28T05:50:15.067Z,5.88
2022-12-28T05:50:47.110Z,5.88
2022-12-28T05:51:19.132Z,5.88
2022-12-28T05:51:50.927Z,5.88
2022-12-28T05:52:22.999Z,5.88
2022-12-28T05:52:55.039Z,5.88
2022-12-28T05:53:27.044Z,4.91
2022-12-28T05:53:58.895Z,5.88
2022-12-28T05:54:30.864Z,5.88
2022-12-28T05:55:03.035Z,5.88
2022-12-28T05:55:35.224Z,4.70
2022-12-28T05:56:12.162Z,4.91
2022-12-28T05:56:38.851Z,5.88
2022-12-28T05:57:10.864Z,5.88
2022-12-28T05:57:42.918Z,5.88
2022-12-28T05:58:14.732Z,6.00
2022-12-28T05:58:46.788Z,6.00
2022-12-28T05:59:18.722Z,6.00
2022-12-28T05:59:50.807Z,6.00
2022-12-28T06:00:22.863Z,6.00
2022-12-28T06:00:54.714Z,6.00
2022-12-28T06:01:26.735Z,6.00
2022-12-28T06:01:58.936Z,6.00
2022-12-28T06:02:30.582Z,6.00
2022-12-28T06:03:02.857Z,6.00
2022-12-28T06:03:34.768Z,6.00
2022-12-28T06:04:06.640Z,6.00
2022-12-28T06:04:38.417Z,6.00
2022-12-28T06:05:10.531Z,6.00
2022-12-28T06:05:42.612Z,6.00
2022-12-28T06:06:14.547Z,6.00
2022-12-28T06:06:46.428Z,6.00
2022-12-28T06:07:18.405Z,6.00
2022-12-28T06:07:50.462Z,6.00
2022-12-28T06:08:22.854Z,6.00
2022-12-28T06:08:54.280Z,4.94
2022-12-28T06:09:26.306Z,6.00
2022-12-28T06:09:58.401Z,6.00
2022-12-28T06:10:30.429Z,6.00
2022-12-28T06:11:02.235Z,6.00
2022-12-28T06:11:34.669Z,6.00
2022-12-28T06:12:06.276Z,6.11
2022-12-28T06:12:38.182Z,6.11
2022-12-28T06:13:10.160Z,6.11
2022-12-28T06:13:42.158Z,6.11
2022-12-28T06:14:14.202Z,6.11
2022-12-28T06:14:46.005Z,6.11
2022-12-28T06:15:18.206Z,6.11
2022-12-28T06:15:50.057Z,6.11
2022-12-28T06:16:22.143Z,6.11
2022-12-28T06:16:54.002Z,6.11
2022-12-28T06:17:25.917Z,6.11
2022-12-28T06:17:58.028Z,6.11
2022-12-28T06:18:30.047Z,6.11
2022-12-28T06:19:01.846Z,6.11
2022-12-28T06:19:33.924Z,6.11
2022-12-28T06:20:06.008Z,6.11
2022-12-28T06:20:37.924Z,6.11
2022-12-28T06:21:09.783Z,5.18
2022-12-28T06:21:41.782Z,6.11
2022-12-28T06:22:13.866Z,5.07
2022-12-28T06:22:45.828Z,4.97
2022-12-28T06:23:17.739Z,6.11
2022-12-28T06:23:49.744Z,6.11
2022-12-28T06:24:21.679Z,6.11
2022-12-28T06:24:53.789Z,6.11
2022-12-28T06:25:25.534Z,6.11
2022-12-28T06:25:57.633Z,6.11
2022-12-28T06:26:29.671Z,6.11
2022-12-28T06:27:01.969Z,6.00
2022-12-28T06:27:33.847Z,6.00
2022-12-28T06:28:05.527Z,6.00
2022-12-28T06:28:37.501Z,6.00
2022-12-28T06:29:09.521Z,6.00
2022-12-28T06:29:41.347Z,6.00
2022-12-28T06:30:13.943Z,4.97
2022-12-28T06:30:50.492Z,6.11
2022-12-28T06:31:17.594Z,6.11
2022-12-28T06:31:49.321Z,6.11
2022-12-28T06:32:21.350Z,6.11
2022-12-28T06:32:53.423Z,6.11
2022-12-28T06:33:25.400Z,6.11
2022-12-28T06:33:57.341Z,6.11
2022-12-28T06:34:29.253Z,6.11
2022-12-28T06:35:01.547Z,6.11
2022-12-28T06:35:33.374Z,6.11
2022-12-28T06:36:05.136Z,6.11
2022-12-28T06:36:37.134Z,6.11
2022-12-28T06:37:09.212Z,6.11
2022-12-28T06:37:41.232Z,6.11
2022-12-28T06:38:13.038Z,6.11
2022-12-28T06:38:45.324Z,5.18
2022-12-28T06:39:17.157Z,6.11
2022-12-28T06:39:49.105Z,6.11
2022-12-28T06:40:28.369Z,6.11
2022-12-28T06:41:13.014Z,6.11
2022-12-28T06:41:25.103Z,6.11
2022-12-28T06:41:56.857Z,6.11
2022-12-28T06:42:28.928Z,6.11
2022-12-28T06:43:00.970Z,6.11
2022-12-28T06:43:33.101Z,6.11
2022-12-28T06:44:04.750Z,6.11
2022-12-28T06:44:40.721Z,6.11
2022-12-28T06:45:09.166Z,6.11
2022-12-28T06:45:40.917Z,6.11
2022-12-28T06:46:12.796Z,6.11
2022-12-28T06:46:44.795Z,5.18
2022-12-28T06:47:16.766Z,6.11
2022-12-28T06:47:48.777Z,6.11
2022-12-28T06:48:20.676Z,6.11
2022-12-28T06:48:52.777Z,6.11
2022-12-28T06:49:24.700Z,6.11
2022-12-28T06:49:56.707Z,6.11
2022-12-28T06:50:28.544Z,6.11
2022-12-28T06:51:00.625Z,6.11
2022-12-28T06:51:32.612Z,6.11
2022-12-28T06:52:04.621Z,6.11
2022-12-28T06:52:36.452Z,6.11
2022-12-28T06:53:08.469Z,6.11
2022-12-28T06:53:40.501Z,6.11
2022-12-28T06:54:12.597Z,6.11
2022-12-28T06:54:44.374Z,6.11
2022-12-28T06:55:16.402Z,6.11
2022-12-28T06:55:48.377Z,6.11
2022-12-28T06:56:20.287Z,6.11
2022-12-28T06:56:52.324Z,6.11
2022-12-28T06:57:24.289Z,6.11
2022-12-28T06:57:56.282Z,6.11
2022-12-28T06:58:28.565Z,6.11
2022-12-28T06:59:03.140Z,6.11
2022-12-28T06:59:32.293Z,6.11
2022-12-28T07:00:04.609Z,6.11
2022-12-28T07:00:36.311Z,6.11
2022-12-28T07:01:08.328Z,6.11
2022-12-28T07:01:40.374Z,6.11
2022-12-28T07:02:12.299Z,6.11
2022-12-28T07:02:44.281Z,6.11
2022-12-28T07:03:16.063Z,6.11
2022-12-28T07:03:48.066Z,6.11
2022-12-28T07:04:20.045Z,6.11
2022-12-28T07:04:51.905Z,6.11
2022-12-28T07:05:23.947Z,6.11